Thursday, May 24, 2018, 1:51 PM EDT
Back to Local

KWRI, Mcguire Air Force Base

Location: Trenton, NJ, United States Lat: 40.017
Local Time: 1:51 PM EDT (17:51 GMT) Lon: -74.6
Time Zone: US/Eastern Elev: 134 ft

Show me the last for .
Show Decoded

2018-05-24 12:56 METAR KWRI 241656Z AUTO 03006KT 10SM FEW180 26/07 A3012 RMK AO2 SLP199 T02610067
                 =
2018-05-24 11:56 METAR KWRI 241556Z AUTO 33005KT 10SM FEW200 25/06 A3013 RMK AO2 SLP202 T02500057
                 =
2018-05-24 11:24 METAR KWRI 241524Z AUTO 33012KT 10SM FEW170 25/06 A3013 RMK AO2 WSHFT 19 SLP202
                 =
2018-05-24 10:56 METAR KWRI 241456Z AUTO 35014KT 10SM FEW210 25/05 A3013 RMK AO2 SLP202 T02460049
                 51004 =
2018-05-24 09:56 METAR KWRI 241356Z AUTO 33009KT 10SM CLR 23/12 A3012 RMK AO2 SLP199 T02340121 =
2018-05-24 08:56 METAR KWRI 241256Z AUTO 36009KT 10SM CLR 22/13 A3012 RMK AO2 SLP199 T02180129 =
2018-05-24 07:56 METAR KWRI 241156Z AUTO 31009KT 10SM CLR 20/12 A3011 RMK AO2 SLP195 T01980121
                 10198 20151 =
2018-05-24 06:56 METAR KWRI 241056Z AUTO 33005KT 10SM CLR 18/12 A3009 RMK AO2 SLP188 T01770117 =
2018-05-24 05:56 METAR KWRI 240956Z AUTO 32005KT 10SM CLR 15/12 A3007 RMK AO2 SLP182 T01510117 =
2018-05-24 04:56 METAR KWRI 240856Z AUTO 31005KT 10SM CLR 17/12 A3004 RMK AO2 SLP172 T01660119
                 52005 =
2018-05-24 03:56 METAR KWRI 240756Z AUTO 33003KT 10SM CLR 16/12 A3004 RMK AO2 SLP172 T01610123 =
2018-05-24 02:56 METAR KWRI 240656Z 31004KT 10SM CLR 17/12 A3003 RMK AO2A SLP168 T01700123 =
2018-05-24 01:56 METAR KWRI 240556Z 31004KT 10SM CLR 18/12 A3002 RMK AO2A SLP165 T01800124 10235
                 20163 51007 =
2018-05-24 00:56 METAR KWRI 240456Z 32005KT 10SM CLR 18/13 A3002 RMK AO2A SLP165 T01780125
                 402630148 =
2018-05-23 23:56 METAR KWRI 240356Z 25003KT 10SM CLR 18/13 A3001 RMK AO2A SLP161 T01770128 =
2018-05-23 22:56 METAR KWRI 240256Z COR 23004KT 10SM CLR 19/13 A3000 RMK AO2A SLP158 T01910133
                 51012 COR 0310 =
2018-05-23 21:56 METAR KWRI 240156Z 24003KT 10SM CLR 21/13 A3000 RMK AO2A SLP158 T02060131 =
2018-05-23 20:56 METAR KWRI 240056Z COR 25003KT 10SM CLR 19/15 A2998 RMK AOA2 SLP151 T01890150
                 COR 0100 =
2018-05-23 19:56 METAR KWRI 232356Z AUTO 25003KT 10SM CLR 24/13 A2997 RMK AO2 SLP148 T02360134
                 10263 20236 52010 =
2018-05-23 18:56 METAR KWRI 232256Z AUTO 30005KT 10SM CLR 24/14 A2995 RMK AO2 SLP141 T02430138 =
2018-05-23 17:56 METAR KWRI 232156Z AUTO 35009KT 10SM CLR 25/13 A2994 RMK AO2 SLP138 T02520131 =
2018-05-23 16:56 METAR KWRI 232056Z AUTO 32011KT 10SM CLR 26/15 A2993 RMK AO2 SLP134 T02560147 =
2018-05-23 16:35 METAR KWRI 232035Z AUTO 35012KT 10SM CLR 26/15 A2993 RMK AO2 WSHFT 32 SLP134 =
2018-05-23 16:06 METAR KWRI 232006Z AUTO 30011KT 10SM FEW043 26/15 A2993 RMK AO2 WSHFT 1957
                 SLP134 =
2018-05-23 15:57 METAR KWRI 231957Z AUTO 34013KT 10SM FEW042 26/16 A2993 RMK AO2 WSHFT 50 SLP134
                 =
2018-05-23 15:56 METAR KWRI 231956Z AUTO 34012KT 10SM FEW042 26/16 A2993 RMK AO2 SLP134 T02590156
                 =
2018-05-23 14:57 METAR KWRI 231857Z AUTO 30010KT 10SM FEW039 FEW170 SCT200 26/17 A2993 RMK AO2
                 WSHFT 53 SLP134 =
2018-05-23 14:56 METAR KWRI 231856Z AUTO 33011KT 10SM FEW041 SCT050 26/16 A2993 RMK AO2 SLP134
                 T02590164 =
2018-05-23 13:56 METAR KWRI 231756Z AUTO 34009KT 10SM FEW033 SCT047 25/17 A2993 RMK AO2 SLP134
                 T02470172 10251 20169 53000 =

Support USWX by starting your Amazon purchase here.